createdAt,value
2018-03-30T00:01:43.032Z,88.30
2018-03-30T00:04:13.132Z,87.90
2018-03-30T00:06:43.247Z,88.00
2018-03-30T00:09:29.943Z,89.40
2018-03-30T00:12:00.091Z,88.80
2018-03-30T00:14:30.255Z,88.90
2018-03-30T00:17:02.796Z,89.30
2018-03-30T00:19:32.914Z,89.50
2018-03-30T00:22:06.794Z,89.50
2018-03-30T00:24:37.000Z,89.40
2018-03-30T00:27:06.751Z,89.50
2018-03-30T00:29:37.383Z,89.30
2018-03-30T00:32:07.583Z,89.40
2018-03-30T00:34:38.211Z,89.20
2018-03-30T00:37:09.223Z,88.90
2018-03-30T00:39:39.165Z,88.70
2018-03-30T00:42:09.432Z,88.50
2018-03-30T00:44:40.519Z,88.40
2018-03-30T00:47:10.708Z,88.00
2018-03-30T00:49:40.851Z,88.10
2018-03-30T00:52:11.425Z,88.00
2018-03-30T00:54:41.576Z,87.80
2018-03-30T00:57:12.482Z,87.60
2018-03-30T00:59:42.614Z,87.60
2018-03-30T01:02:12.743Z,87.30
2018-03-30T01:04:42.835Z,87.20
2018-03-30T01:07:13.833Z,87.00
2018-03-30T01:09:43.935Z,86.80
2018-03-30T01:12:14.269Z,86.60
2018-03-30T01:14:44.358Z,86.50
2018-03-30T01:17:15.225Z,86.00
2018-03-30T01:19:45.561Z,86.00
2018-03-30T01:22:16.476Z,85.90
2018-03-30T01:24:46.866Z,85.90
2018-03-30T01:27:17.004Z,86.70
2018-03-30T01:29:50.305Z,86.90
2018-03-30T01:32:21.005Z,87.00
2018-03-30T01:34:51.187Z,87.60
2018-03-30T01:37:21.776Z,87.40
2018-03-30T01:39:53.337Z,87.30
2018-03-30T01:42:24.033Z,86.60
2018-03-30T01:44:54.151Z,86.30
2018-03-30T01:47:24.288Z,85.80
2018-03-30T01:49:54.397Z,85.50
2018-03-30T01:52:24.477Z,85.30
2018-03-30T01:54:54.593Z,84.90
2018-03-30T01:57:24.804Z,84.70
2018-03-30T01:59:55.862Z,85.00
2018-03-30T02:02:26.348Z,85.70
2018-03-30T02:04:58.826Z,84.50
2018-03-30T02:07:29.270Z,83.90
2018-03-30T02:09:59.597Z,83.60
2018-03-30T02:12:31.531Z,83.40
2018-03-30T02:15:01.627Z,83.50
2018-03-30T02:17:31.739Z,83.20
2018-03-30T02:20:01.825Z,83.00
2018-03-30T02:22:31.579Z,83.00
2018-03-30T02:25:01.903Z,83.50
2018-03-30T02:27:32.468Z,84.40
2018-03-30T02:30:04.376Z,84.60
2018-03-30T02:32:36.126Z,85.30
2018-03-30T02:35:07.454Z,86.10
2018-03-30T02:37:38.054Z,86.00
2018-03-30T02:40:12.073Z,85.90
2018-03-30T02:42:43.078Z,85.00
2018-03-30T02:47:54.034Z,85.00
2018-03-30T02:50:24.404Z,84.80
2018-03-30T02:52:54.833Z,84.50
2018-03-30T02:55:31.992Z,83.60
2018-03-30T02:58:02.118Z,84.20
2018-03-30T03:00:32.252Z,84.90
2018-03-30T03:03:05.859Z,84.90
2018-03-30T03:05:36.065Z,84.90
2018-03-30T03:08:06.169Z,82.90
2018-03-30T03:10:36.490Z,81.90
2018-03-30T03:13:06.610Z,81.80
2018-03-30T03:15:36.680Z,80.70
2018-03-30T03:18:06.149Z,80.30
2018-03-30T03:20:36.279Z,80.30
2018-03-30T03:23:07.414Z,80.90
2018-03-30T03:25:37.678Z,80.90
2018-03-30T03:28:08.578Z,81.50
2018-03-30T03:30:39.746Z,81.90
2018-03-30T03:33:10.083Z,81.10
2018-03-30T03:35:40.954Z,81.40
2018-03-30T03:38:11.037Z,81.40
2018-03-30T03:40:41.126Z,81.50
2018-03-30T03:48:25.538Z,81.60
2018-03-30T03:50:55.640Z,81.90
2018-03-30T03:53:28.353Z,82.30
2018-03-30T03:55:59.384Z,82.30
2018-03-30T03:58:29.472Z,81.90
2018-03-30T04:00:59.552Z,81.70
2018-03-30T04:03:29.935Z,81.90
2018-03-30T04:06:00.762Z,81.70
2018-03-30T04:08:31.683Z,80.90
2018-03-30T04:11:03.468Z,80.60
2018-03-30T04:13:33.783Z,81.20
2018-03-30T04:16:03.872Z,80.50
2018-03-30T04:18:34.222Z,80.20
2018-03-30T04:21:04.346Z,79.90
2018-03-30T04:23:37.556Z,79.70
2018-03-30T04:26:07.951Z,79.70
2018-03-30T04:28:38.274Z,79.60
2018-03-30T04:31:10.766Z,79.40
2018-03-30T04:33:41.600Z,79.20
2018-03-30T04:36:11.716Z,79.20
2018-03-30T04:38:47.811Z,79.30
2018-03-30T04:41:17.947Z,79.50
2018-03-30T04:46:24.659Z,80.00
2018-03-30T04:48:55.660Z,80.60
2018-03-30T04:51:27.644Z,80.70
2018-03-30T04:53:57.841Z,80.80
2018-03-30T04:56:28.507Z,80.60
2018-03-30T04:58:58.393Z,80.60
2018-03-30T05:01:28.212Z,80.80
2018-03-30T05:03:58.791Z,80.40
2018-03-30T05:06:30.295Z,79.00
2018-03-30T05:09:00.391Z,79.00
2018-03-30T05:11:30.460Z,78.40
2018-03-30T05:14:00.567Z,78.10
2018-03-30T05:19:06.130Z,77.50
2018-03-30T05:21:37.498Z,77.50
2018-03-30T05:24:08.190Z,77.80
2018-03-30T05:26:41.640Z,78.30
2018-03-30T05:29:12.867Z,79.00
2018-03-30T05:31:48.212Z,78.90
2018-03-30T05:34:18.510Z,78.90
2018-03-30T05:36:48.800Z,78.60
2018-03-30T05:39:19.170Z,78.60
2018-03-30T05:41:52.721Z,78.70
2018-03-30T05:44:23.205Z,78.40
2018-03-30T05:46:53.292Z,78.00
2018-03-30T05:49:23.431Z,77.90
2018-03-30T05:51:54.874Z,77.80
2018-03-30T05:54:24.999Z,78.00
2018-03-30T05:56:59.274Z,78.10
2018-03-30T05:59:29.791Z,77.50
2018-03-30T06:01:59.868Z,77.40
2018-03-30T06:04:29.958Z,77.10
2018-03-30T06:07:10.580Z,76.20
2018-03-30T06:09:40.978Z,76.10
2018-03-30T06:12:11.117Z,75.40
2018-03-30T06:14:40.956Z,74.20
2018-03-30T06:17:11.842Z,72.80
2018-03-30T06:19:43.699Z,71.20
2018-03-30T06:22:25.996Z,71.10
2018-03-30T06:24:59.380Z,68.20
2018-03-30T06:27:32.616Z,67.80
2018-03-30T06:30:03.484Z,66.00
2018-03-30T06:32:33.594Z,66.00
2018-03-30T06:35:03.642Z,67.00
2018-03-30T06:37:34.448Z,63.20
2018-03-30T06:40:04.307Z,60.00
2018-03-30T06:42:34.404Z,61.40
2018-03-30T06:45:04.452Z,58.50
2018-03-30T06:47:34.840Z,58.30
2018-03-30T06:50:04.089Z,56.40
2018-03-30T06:52:35.666Z,57.20
2018-03-30T06:55:05.774Z,55.90
2018-03-30T06:57:36.157Z,53.80
2018-03-30T07:00:05.612Z,54.80
2018-03-30T07:02:36.457Z,51.80
2018-03-30T07:05:06.342Z,51.70
2018-03-30T07:07:37.173Z,46.50
2018-03-30T07:10:08.090Z,48.70
2018-03-30T07:12:38.374Z,48.80
2018-03-30T07:15:08.671Z,46.20
2018-03-30T07:17:39.050Z,47.60
2018-03-30T07:20:08.800Z,45.60
2018-03-30T07:22:38.881Z,45.80
2018-03-30T07:25:09.308Z,45.90
2018-03-30T07:27:39.385Z,48.40
2018-03-30T07:30:10.485Z,49.10
2018-03-30T07:32:40.588Z,49.10
2018-03-30T07:35:10.690Z,48.60
2018-03-30T07:37:40.885Z,50.20
2018-03-30T07:40:11.770Z,44.80
2018-03-30T07:42:41.849Z,45.60
2018-03-30T07:45:12.186Z,47.70
2018-03-30T07:47:42.262Z,48.20
2018-03-30T07:50:12.548Z,41.40
2018-03-30T07:52:43.407Z,44.60
2018-03-30T07:55:14.271Z,43.60
2018-03-30T07:57:44.824Z,43.70
2018-03-30T08:00:14.905Z,48.00
2018-03-30T08:02:45.029Z,44.20
2018-03-30T08:05:15.167Z,42.60
2018-03-30T08:07:45.254Z,41.30
2018-03-30T08:10:15.344Z,39.20
2018-03-30T08:12:45.279Z,36.90
2018-03-30T08:15:15.385Z,36.30
2018-03-30T08:17:45.665Z,42.10
2018-03-30T08:20:16.538Z,38.60
2018-03-30T08:22:47.400Z,37.90
2018-03-30T08:25:17.640Z,37.90
2018-03-30T08:27:48.518Z,38.90
2018-03-30T08:30:18.832Z,39.00
2018-03-30T08:32:48.932Z,37.00
2018-03-30T08:35:19.014Z,39.30
2018-03-30T08:37:49.429Z,39.80
2018-03-30T08:40:19.525Z,39.50
2018-03-30T08:42:49.716Z,39.20
2018-03-30T08:45:19.807Z,39.80
2018-03-30T08:47:50.082Z,39.20
2018-03-30T08:50:20.905Z,37.30
2018-03-30T08:52:51.046Z,37.30
2018-03-30T08:55:21.244Z,36.40
2018-03-30T08:57:51.510Z,35.30
2018-03-30T09:00:21.738Z,39.40
2018-03-30T09:02:53.700Z,35.60
2018-03-30T09:05:23.788Z,35.60
2018-03-30T09:07:56.754Z,37.70
2018-03-30T09:10:27.073Z,37.70
2018-03-30T09:12:57.930Z,36.40
2018-03-30T09:15:27.939Z,39.40
2018-03-30T09:18:00.739Z,36.40
2018-03-30T09:20:31.033Z,34.20
2018-03-30T09:23:01.759Z,34.30
2018-03-30T09:25:32.022Z,35.50
2018-03-30T09:28:02.422Z,34.70
2018-03-30T09:30:32.196Z,34.60
2018-03-30T09:33:02.069Z,34.00
2018-03-30T09:35:32.319Z,33.30
2018-03-30T09:38:02.785Z,30.10
2018-03-30T09:40:33.891Z,33.20
2018-03-30T09:43:04.029Z,29.20
2018-03-30T09:45:34.309Z,29.40
2018-03-30T09:48:04.446Z,34.80
2018-03-30T09:50:34.639Z,34.00
2018-03-30T09:53:05.083Z,31.40
2018-03-30T09:55:35.191Z,33.60
2018-03-30T09:58:06.585Z,30.80
2018-03-30T10:00:37.565Z,30.30
2018-03-30T10:03:07.703Z,30.00
2018-03-30T10:05:38.033Z,28.20
2018-03-30T10:08:08.113Z,27.10
2018-03-30T10:10:38.997Z,28.50
2018-03-30T10:13:09.928Z,27.50
2018-03-30T10:15:39.807Z,27.50
2018-03-30T10:18:09.912Z,29.50
2018-03-30T10:20:40.189Z,28.10
2018-03-30T10:23:10.366Z,29.30
2018-03-30T10:25:40.504Z,23.90
2018-03-30T10:28:10.890Z,23.10
2018-03-30T10:30:41.005Z,20.10
2018-03-30T10:33:11.175Z,22.00
2018-03-30T10:35:41.617Z,20.20
2018-03-30T10:38:11.879Z,22.00
2018-03-30T10:40:43.130Z,22.20
2018-03-30T10:43:13.327Z,21.60
2018-03-30T10:45:44.091Z,23.90
2018-03-30T10:48:14.660Z,23.40
2018-03-30T10:50:45.331Z,18.60
2018-03-30T10:53:16.318Z,19.30
2018-03-30T10:55:47.315Z,18.10
2018-03-30T10:58:17.426Z,20.80
2018-03-30T11:00:49.914Z,20.10
2018-03-30T11:03:21.991Z,26.30
2018-03-30T11:05:52.121Z,26.40
2018-03-30T11:08:23.050Z,25.60
2018-03-30T11:10:53.187Z,24.00
2018-03-30T11:13:23.456Z,25.40
2018-03-30T11:15:53.776Z,24.50
2018-03-30T11:18:23.893Z,24.60
2018-03-30T11:20:54.061Z,23.60
2018-03-30T11:23:24.114Z,23.20
2018-03-30T11:25:54.242Z,25.70
2018-03-30T11:28:24.317Z,23.20
2018-03-30T11:30:56.903Z,25.40
2018-03-30T11:33:27.070Z,27.10
2018-03-30T11:35:57.425Z,25.40
2018-03-30T11:38:27.364Z,27.70
2018-03-30T11:40:57.728Z,26.40
2018-03-30T11:43:28.213Z,28.60
2018-03-30T11:45:58.602Z,27.00
2018-03-30T11:48:28.843Z,28.90
2018-03-30T11:50:59.338Z,28.90
2018-03-30T11:53:29.564Z,29.00
2018-03-30T11:56:00.151Z,28.40
2018-03-30T11:58:31.255Z,27.30
2018-03-30T12:01:01.404Z,27.30
2018-03-30T12:03:31.500Z,29.40
2018-03-30T12:06:01.652Z,29.60
2018-03-30T12:08:31.766Z,29.70
2018-03-30T12:11:01.918Z,29.90
2018-03-30T12:13:35.104Z,29.20
2018-03-30T12:16:05.431Z,27.20
2018-03-30T12:18:35.830Z,28.00
2018-03-30T12:21:06.132Z,27.70
2018-03-30T12:23:37.059Z,26.00
2018-03-30T12:26:09.520Z,26.00
2018-03-30T12:28:41.027Z,25.50
2018-03-30T12:31:11.106Z,25.50
2018-03-30T12:33:41.283Z,25.00
2018-03-30T12:36:11.448Z,28.90
2018-03-30T12:38:41.557Z,25.80
2018-03-30T12:41:12.136Z,23.90
2018-03-30T12:43:42.468Z,23.20
2018-03-30T12:46:13.369Z,19.70
2018-03-30T12:48:44.201Z,19.70
2018-03-30T12:51:15.053Z,23.60
2018-03-30T12:53:45.157Z,23.00
2018-03-30T12:56:16.604Z,19.90
2018-03-30T12:58:47.665Z,19.80
2018-03-30T13:01:18.297Z,18.10
2018-03-30T13:03:49.048Z,18.80
2018-03-30T13:06:19.852Z,16.70
2018-03-30T13:08:50.508Z,17.70
2018-03-30T13:11:20.884Z,17.80
2018-03-30T13:13:50.953Z,18.40
2018-03-30T13:16:21.062Z,20.10
2018-03-30T13:18:51.158Z,17.70
2018-03-30T13:21:22.034Z,20.10
2018-03-30T13:23:52.991Z,19.40
2018-03-30T13:26:23.123Z,19.40
2018-03-30T13:28:52.908Z,19.60
2018-03-30T13:31:23.140Z,20.20
2018-03-30T13:33:54.372Z,20.20
2018-03-30T13:36:24.509Z,20.20
2018-03-30T13:38:54.676Z,21.20
2018-03-30T13:41:24.835Z,21.20
2018-03-30T13:43:56.551Z,21.00
2018-03-30T13:46:26.611Z,20.90
2018-03-30T13:48:56.707Z,21.10
2018-03-30T13:51:34.768Z,20.80
2018-03-30T13:54:07.346Z,20.00
2018-03-30T13:56:37.408Z,22.90
2018-03-30T14:02:49.007Z,22.20
2018-03-30T14:24:13.403Z,25.00
2018-03-30T14:27:02.220Z,24.20
2018-03-30T14:32:49.757Z,23.80
2018-03-30T14:38:44.771Z,24.10
2018-03-30T14:41:13.977Z,23.40
2018-03-30T14:47:09.827Z,24.00
2018-03-30T14:50:13.278Z,26.60
2018-03-30T14:56:10.093Z,27.20
2018-03-30T15:17:22.196Z,27.80
2018-03-30T15:23:27.760Z,27.80
2018-03-30T15:25:58.301Z,29.10
2018-03-30T15:28:38.050Z,29.40
2018-03-30T15:31:27.271Z,30.40
2018-03-30T16:04:54.893Z,37.10
2018-03-30T16:13:21.985Z,38.20
2018-03-30T16:15:58.585Z,43.10
2018-03-30T16:18:50.128Z,46.50
2018-03-30T16:21:37.335Z,43.10
2018-03-30T16:29:46.522Z,59.20
2018-03-30T16:32:34.824Z,60.90
2018-03-30T16:35:04.036Z,63.80
2018-03-30T16:37:33.702Z,67.10
2018-03-30T16:49:30.264Z,73.60
2018-03-30T16:55:08.866Z,76.80
2018-03-30T16:57:37.273Z,78.00
2018-03-30T17:09:37.731Z,77.60
2018-03-30T17:12:06.365Z,77.80
2018-03-30T17:30:10.077Z,81.40
2018-03-30T17:36:18.157Z,83.00
2018-03-30T17:38:55.625Z,83.80
2018-03-30T17:44:11.582Z,83.80
2018-03-30T17:49:43.628Z,84.60
2018-03-30T17:52:18.980Z,84.60
2018-03-30T17:54:47.457Z,84.60
2018-03-30T17:57:36.148Z,84.50
2018-03-30T18:00:23.989Z,85.30
2018-03-30T18:02:53.176Z,85.40
2018-03-30T18:05:27.868Z,85.30
2018-03-30T18:07:57.160Z,85.50
2018-03-30T18:13:39.345Z,85.20
2018-03-30T18:25:27.615Z,85.50
2018-03-30T18:27:56.412Z,86.00
2018-03-30T18:33:23.951Z,85.30
2018-03-30T18:38:48.296Z,85.60
2018-03-30T18:44:20.686Z,86.50
2018-03-30T18:49:54.656Z,86.30
2018-03-30T18:52:25.035Z,86.20
2018-03-30T18:54:54.285Z,86.40
2018-03-30T18:57:24.817Z,86.40
2018-03-30T19:03:14.003Z,85.70
2018-03-30T19:05:43.225Z,85.50
2018-03-30T19:08:23.958Z,86.30
2018-03-30T19:10:53.127Z,86.70
2018-03-30T19:13:23.178Z,86.80
2018-03-30T19:15:54.587Z,86.80
2018-03-30T19:34:55.463Z,87.30
2018-03-30T19:46:33.081Z,88.00
2018-03-30T19:49:01.683Z,87.80
2018-03-30T19:51:30.327Z,88.20
2018-03-30T20:05:46.947Z,86.80
2018-03-30T20:08:15.803Z,87.10
2018-03-30T20:10:44.151Z,87.40
2018-03-30T20:13:25.590Z,87.20
2018-03-30T20:28:27.528Z,86.80
2018-03-30T20:30:56.000Z,87.30
2018-03-30T20:36:47.285Z,87.40
2018-03-30T20:39:15.969Z,87.30
2018-03-30T20:41:52.234Z,87.20
2018-03-30T20:44:40.933Z,87.10
2018-03-30T20:53:29.602Z,87.40
2018-03-30T20:55:57.999Z,87.50
2018-03-30T21:01:37.331Z,87.50
2018-03-30T21:07:16.012Z,87.20
2018-03-30T21:22:02.555Z,86.50
2018-03-30T21:24:31.541Z,86.80
2018-03-30T21:27:00.355Z,87.30
2018-03-30T21:35:42.606Z,87.20
2018-03-30T21:38:11.998Z,87.10
2018-03-30T21:41:08.946Z,87.10
2018-03-30T21:49:29.390Z,86.90
2018-03-30T21:51:58.737Z,87.60
2018-03-30T22:00:48.003Z,88.40
2018-03-30T22:03:17.585Z,88.40
2018-03-30T22:05:46.103Z,88.40
2018-03-30T22:08:15.601Z,88.40
2018-03-30T22:11:10.636Z,88.30
2018-03-30T22:13:39.010Z,88.20
2018-03-30T22:16:08.886Z,88.00
2018-03-30T22:18:38.230Z,88.00
2018-03-30T22:21:06.864Z,87.90
2018-03-30T22:23:35.249Z,87.80
2018-03-30T22:26:03.596Z,87.80
2018-03-30T22:31:43.069Z,87.70
2018-03-30T22:43:42.486Z,87.80
2018-03-30T22:49:20.861Z,87.90
2018-03-30T22:51:49.684Z,87.80
2018-03-30T22:57:29.558Z,87.90
2018-03-30T22:59:58.738Z,87.60
2018-03-30T23:12:04.574Z,87.60
2018-03-30T23:14:32.946Z,87.60
2018-03-30T23:20:11.198Z,87.80
2018-03-30T23:22:57.085Z,87.80
2018-03-30T23:25:25.526Z,87.80
2018-03-30T23:46:55.604Z,87.80
2018-03-30T23:52:34.556Z,87.90
2018-03-30T23:55:02.913Z,87.90
